North Wichita, Kansas
Current Conditions -  °F | °C
As of 4:54 PM on Saturday 20 Dec 2014 (Local Time) from KAAO Reporting Station
Overcast Overcast  
Wind Chill: 35°   Ceiling: 2100
Heat Index: 43°   Visibility: 10mi
Dew Point: 35°   Wind: 18mph
Humidity: 74%   Direction: 180°S
Pressure: 30.09"   Gusts: NA
Location:  37.7735°N, 97.3663°W
Report Text: KAAO 202254Z AUTO 18016KT 10SM OVC021 06/02 A3009 RMK AO2 SLP197 T00610017
Loading
Personal Weather Stations






























Interactive Weather Map New forecast layout! Learn more

10-Day Weather Forecast

Advertisements
Track Severe Weather on mobile